CYOW/YOW METAR and TAF weather

Enter ICAO airport designator
Station Type Date Time Source
CYOW METAR 2019/06/26 22:00 UTC NOAA

CYOW 262200Z 23014KT 15SM SCT045TCU SCT180 26/18 A2991 RMK TCU3AC1 SLP128 DENSITY ALT 1800FT


Station Type Date Time Source
CYOW Decoded METAR 2019/06/26 22:00 UTC NOAA

Ottawa Int'L. Ont., Canada (CYOW) 45-19N 075-40W 114M
Jun 26, 2019 - 06:00 PM EDT / 2019.06.26 2200 UTC
Wind: from the SW (230 degrees) at 16 MPH (14 KT):0
Visibility: 15 mile(s):0
Sky conditions: partly cloudy
Weather: Towering cumulus clouds observed
Temperature: 78 F (26 C)
Dew Point: 64 F (18 C)
Relative Humidity: 61%
Pressure (altimeter): 29.91 in. Hg (1012 hPa)
ob: CYOW 262200Z 23014KT 15SM SCT045TCU SCT180 26/18 A2991 RMK TCU3AC1 SLP128 DENSITY ALT 1800FT
cycle: 22

Station Type Date Time Source
CYOW TAF 2019/06/26 21:42 UTC NOAA

TAF CYOW 262038Z 2621/2718 21010G20KT P6SM BKN040 OVC080
TEMPO 2621/2623 VRB15G30KT P6SM -SHRA PROB30 2621/2623 VRB20G40KT 2SM TSRA BR SCT020 OVC040CB
FM270000 VRB03KT P6SM SCT060 PROB30 2703/2706 1/2SM FG
FM270600 27008KT P6SM FEW060
BECMG 2715/2717 27010G20KT
RMK NXT FCST BY 270000Z

Example: see airport list